sensor_id;sensor_type;location;lat;lon;timestamp;P1;durP1;ratioP1;P2;durP2;ratioP2
21233;SDS011;10774;42.178;26.578;2024-03-17T00:01:35;24.30;;;15.88;;
21233;SDS011;10774;42.178;26.578;2024-03-17T00:04:01;24.75;;;16.27;;
21233;SDS011;10774;42.178;26.578;2024-03-17T00:06:27;24.30;;;16.98;;
21233;SDS011;10774;42.178;26.578;2024-03-17T00:08:52;24.35;;;16.95;;
21233;SDS011;10774;42.178;26.578;2024-03-17T00:11:19;30.50;;;19.85;;
21233;SDS011;10774;42.178;26.578;2024-03-17T00:13:44;46.35;;;26.90;;
21233;SDS011;10774;42.178;26.578;2024-03-17T00:16:09;30.20;;;19.60;;
21233;SDS011;10774;42.178;26.578;2024-03-17T00:18:35;46.13;;;27.13;;
21233;SDS011;10774;42.178;26.578;2024-03-17T00:21:01;72.47;;;44.28;;
21233;SDS011;10774;42.178;26.578;2024-03-17T00:23:27;52.35;;;33.08;;
21233;SDS011;10774;42.178;26.578;2024-03-17T00:25:54;59.60;;;36.65;;
21233;SDS011;10774;42.178;26.578;2024-03-17T00:28:20;45.67;;;29.67;;
21233;SDS011;10774;42.178;26.578;2024-03-17T00:30:45;28.88;;;18.02;;
21233;SDS011;10774;42.178;26.578;2024-03-17T00:33:11;21.42;;;15.73;;
21233;SDS011;10774;42.178;26.578;2024-03-17T00:35:36;24.52;;;15.85;;
21233;SDS011;10774;42.178;26.578;2024-03-17T00:38:02;19.58;;;13.02;;
21233;SDS011;10774;42.178;26.578;2024-03-17T00:40:34;26.00;;;16.98;;
21233;SDS011;10774;42.178;26.578;2024-03-17T00:43:00;22.50;;;15.40;;
21233;SDS011;10774;42.178;26.578;2024-03-17T00:45:25;26.17;;;14.85;;
21233;SDS011;10774;42.178;26.578;2024-03-17T00:47:51;25.02;;;15.40;;
21233;SDS011;10774;42.178;26.578;2024-03-17T00:50:16;23.95;;;15.55;;
21233;SDS011;10774;42.178;26.578;2024-03-17T00:52:42;26.30;;;16.63;;
21233;SDS011;10774;42.178;26.578;2024-03-17T00:55:07;26.80;;;16.33;;
21233;SDS011;10774;42.178;26.578;2024-03-17T00:57:35;22.70;;;15.07;;
21233;SDS011;10774;42.178;26.578;2024-03-17T01:00:00;20.35;;;14.65;;
21233;SDS011;10774;42.178;26.578;2024-03-17T01:02:26;22.58;;;14.68;;
21233;SDS011;10774;42.178;26.578;2024-03-17T01:04:51;32.78;;;21.83;;
21233;SDS011;10774;42.178;26.578;2024-03-17T01:07:17;28.05;;;18.88;;
21233;SDS011;10774;42.178;26.578;2024-03-17T01:09:42;32.22;;;18.67;;
21233;SDS011;10774;42.178;26.578;2024-03-17T01:12:07;33.80;;;20.35;;
21233;SDS011;10774;42.178;26.578;2024-03-17T01:14:33;34.78;;;18.63;;
21233;SDS011;10774;42.178;26.578;2024-03-17T01:16:59;17.30;;;11.02;;
21233;SDS011;10774;42.178;26.578;2024-03-17T01:19:25;14.43;;;9.30;;
21233;SDS011;10774;42.178;26.578;2024-03-17T01:21:51;10.38;;;8.98;;
21233;SDS011;10774;42.178;26.578;2024-03-17T01:24:17;11.45;;;9.15;;
21233;SDS011;10774;42.178;26.578;2024-03-17T01:26:43;11.25;;;7.97;;
21233;SDS011;10774;42.178;26.578;2024-03-17T01:29:09;10.80;;;8.35;;
21233;SDS011;10774;42.178;26.578;2024-03-17T01:31:34;15.27;;;8.38;;
21233;SDS011;10774;42.178;26.578;2024-03-17T01:34:00;11.15;;;7.90;;
21233;SDS011;10774;42.178;26.578;2024-03-17T01:36:26;9.55;;;7.60;;
21233;SDS011;10774;42.178;26.578;2024-03-17T01:38:51;10.75;;;8.52;;
21233;SDS011;10774;42.178;26.578;2024-03-17T01:41:17;11.75;;;8.82;;
21233;SDS011;10774;42.178;26.578;2024-03-17T01:43:42;10.85;;;8.43;;
21233;SDS011;10774;42.178;26.578;2024-03-17T01:46:10;12.82;;;9.10;;
21233;SDS011;10774;42.178;26.578;2024-03-17T01:48:38;12.60;;;9.82;;
21233;SDS011;10774;42.178;26.578;2024-03-17T01:51:04;11.93;;;9.63;;
21233;SDS011;10774;42.178;26.578;2024-03-17T01:53:30;15.25;;;11.82;;
21233;SDS011;10774;42.178;26.578;2024-03-17T01:55:56;18.52;;;13.93;;
21233;SDS011;10774;42.178;26.578;2024-03-17T01:58:27;19.30;;;13.30;;
21233;SDS011;10774;42.178;26.578;2024-03-17T02:00:55;15.82;;;12.68;;
21233;SDS011;10774;42.178;26.578;2024-03-17T02:03:21;17.10;;;12.60;;
21233;SDS011;10774;42.178;26.578;2024-03-17T02:05:47;16.55;;;11.82;;
21233;SDS011;10774;42.178;26.578;2024-03-17T02:08:12;19.52;;;13.20;;
21233;SDS011;10774;42.178;26.578;2024-03-17T02:10:38;18.83;;;13.10;;
21233;SDS011;10774;42.178;26.578;2024-03-17T02:13:04;16.73;;;12.70;;
21233;SDS011;10774;42.178;26.578;2024-03-17T02:15:30;21.35;;;14.80;;
21233;SDS011;10774;42.178;26.578;2024-03-17T02:17:56;25.55;;;15.65;;
21233;SDS011;10774;42.178;26.578;2024-03-17T02:20:21;22.77;;;14.05;;
21233;SDS011;10774;42.178;26.578;2024-03-17T02:23:10;25.25;;;16.63;;
21233;SDS011;10774;42.178;26.578;2024-03-17T02:25:36;21.55;;;14.60;;
21233;SDS011;10774;42.178;26.578;2024-03-17T02:28:02;19.40;;;13.82;;
21233;SDS011;10774;42.178;26.578;2024-03-17T02:30:27;19.88;;;13.65;;
21233;SDS011;10774;42.178;26.578;2024-03-17T02:32:53;18.65;;;13.82;;
21233;SDS011;10774;42.178;26.578;2024-03-17T02:35:21;21.30;;;13.48;;
21233;SDS011;10774;42.178;26.578;2024-03-17T02:37:47;16.85;;;12.40;;
21233;SDS011;10774;42.178;26.578;2024-03-17T02:40:12;19.98;;;13.10;;
21233;SDS011;10774;42.178;26.578;2024-03-17T02:42:39;16.88;;;12.90;;
21233;SDS011;10774;42.178;26.578;2024-03-17T02:45:07;17.17;;;12.75;;
21233;SDS011;10774;42.178;26.578;2024-03-17T02:47:33;18.70;;;12.93;;
21233;SDS011;10774;42.178;26.578;2024-03-17T02:49:59;20.08;;;13.20;;
21233;SDS011;10774;42.178;26.578;2024-03-17T02:52:25;19.23;;;12.88;;
21233;SDS011;10774;42.178;26.578;2024-03-17T02:54:50;18.70;;;12.68;;
21233;SDS011;10774;42.178;26.578;2024-03-17T02:57:18;21.88;;;14.70;;
21233;SDS011;10774;42.178;26.578;2024-03-17T02:59:43;21.23;;;12.75;;
21233;SDS011;10774;42.178;26.578;2024-03-17T03:02:10;22.05;;;15.20;;
21233;SDS011;10774;42.178;26.578;2024-03-17T03:04:35;18.33;;;12.68;;
21233;SDS011;10774;42.178;26.578;2024-03-17T03:07:01;17.77;;;11.73;;
21233;SDS011;10774;42.178;26.578;2024-03-17T03:09:26;26.52;;;18.75;;
21233;SDS011;10774;42.178;26.578;2024-03-17T03:11:56;23.27;;;15.05;;
21233;SDS011;10774;42.178;26.578;2024-03-17T03:14:27;20.35;;;14.68;;
21233;SDS011;10774;42.178;26.578;2024-03-17T03:16:53;22.60;;;14.05;;
21233;SDS011;10774;42.178;26.578;2024-03-17T03:19:18;20.63;;;14.68;;
21233;SDS011;10774;42.178;26.578;2024-03-17T03:21:44;26.13;;;16.00;;
21233;SDS011;10774;42.178;26.578;2024-03-17T03:24:10;21.63;;;15.77;;
21233;SDS011;10774;42.178;26.578;2024-03-17T03:26:37;24.17;;;15.48;;
21233;SDS011;10774;42.178;26.578;2024-03-17T03:29:03;13.45;;;10.50;;
21233;SDS011;10774;42.178;26.578;2024-03-17T03:31:30;14.40;;;10.85;;
21233;SDS011;10774;42.178;26.578;2024-03-17T03:33:56;16.83;;;12.05;;
21233;SDS011;10774;42.178;26.578;2024-03-17T03:36:22;20.27;;;14.55;;
21233;SDS011;10774;42.178;26.578;2024-03-17T03:38:47;16.67;;;12.93;;
21233;SDS011;10774;42.178;26.578;2024-03-17T03:41:14;18.27;;;14.15;;
21233;SDS011;10774;42.178;26.578;2024-03-17T03:43:40;20.52;;;13.95;;
21233;SDS011;10774;42.178;26.578;2024-03-17T03:46:06;20.00;;;12.88;;
21233;SDS011;10774;42.178;26.578;2024-03-17T03:48:32;17.27;;;12.80;;
21233;SDS011;10774;42.178;26.578;2024-03-17T03:51:02;20.70;;;14.00;;
21233;SDS011;10774;42.178;26.578;2024-03-17T03:53:29;23.90;;;14.93;;
21233;SDS011;10774;42.178;26.578;2024-03-17T03:55:55;17.85;;;12.10;;
21233;SDS011;10774;42.178;26.578;2024-03-17T03:58:21;17.60;;;11.05;;
21233;SDS011;10774;42.178;26.578;2024-03-17T04:00:46;17.30;;;11.15;;
21233;SDS011;10774;42.178;26.578;2024-03-17T04:03:11;22.13;;;14.60;;
21233;SDS011;10774;42.178;26.578;2024-03-17T04:05:37;17.27;;;12.13;;
21233;SDS011;10774;42.178;26.578;2024-03-17T04:08:02;14.05;;;10.35;;
21233;SDS011;10774;42.178;26.578;2024-03-17T04:10:28;20.17;;;13.05;;
21233;SDS011;10774;42.178;26.578;2024-03-17T04:12:53;20.33;;;13.80;;
21233;SDS011;10774;42.178;26.578;2024-03-17T04:15:33;18.52;;;13.23;;
21233;SDS011;10774;42.178;26.578;2024-03-17T04:17:59;19.38;;;12.95;;
21233;SDS011;10774;42.178;26.578;2024-03-17T04:20:25;23.20;;;14.43;;
21233;SDS011;10774;42.178;26.578;2024-03-17T04:22:50;27.92;;;19.23;;
21233;SDS011;10774;42.178;26.578;2024-03-17T04:25:16;21.13;;;15.48;;
21233;SDS011;10774;42.178;26.578;2024-03-17T04:27:41;10.00;;;8.07;;
21233;SDS011;10774;42.178;26.578;2024-03-17T04:30:07;14.73;;;10.93;;
21233;SDS011;10774;42.178;26.578;2024-03-17T04:32:36;19.17;;;13.93;;
21233;SDS011;10774;42.178;26.578;2024-03-17T04:35:02;13.02;;;9.23;;
21233;SDS011;10774;42.178;26.578;2024-03-17T04:37:28;12.95;;;9.52;;
21233;SDS011;10774;42.178;26.578;2024-03-17T04:39:53;12.88;;;10.05;;
21233;SDS011;10774;42.178;26.578;2024-03-17T04:42:22;11.95;;;9.95;;
21233;SDS011;10774;42.178;26.578;2024-03-17T04:44:48;12.07;;;9.30;;
21233;SDS011;10774;42.178;26.578;2024-03-17T04:47:14;10.85;;;8.90;;
21233;SDS011;10774;42.178;26.578;2024-03-17T04:49:40;17.63;;;15.65;;
21233;SDS011;10774;42.178;26.578;2024-03-17T04:52:06;15.73;;;12.52;;
21233;SDS011;10774;42.178;26.578;2024-03-17T04:54:32;17.38;;;10.95;;
21233;SDS011;10774;42.178;26.578;2024-03-17T04:56:57;15.00;;;9.77;;
21233;SDS011;10774;42.178;26.578;2024-03-17T04:59:23;11.35;;;9.32;;
21233;SDS011;10774;42.178;26.578;2024-03-17T05:01:49;11.85;;;8.75;;
21233;SDS011;10774;42.178;26.578;2024-03-17T05:04:14;11.68;;;9.95;;
21233;SDS011;10774;42.178;26.578;2024-03-17T05:06:40;18.52;;;13.50;;
21233;SDS011;10774;42.178;26.578;2024-03-17T05:09:17;14.60;;;11.45;;
21233;SDS011;10774;42.178;26.578;2024-03-17T05:11:44;18.45;;;12.80;;
21233;SDS011;10774;42.178;26.578;2024-03-17T05:14:09;29.45;;;19.90;;
21233;SDS011;10774;42.178;26.578;2024-03-17T05:19:15;26.83;;;19.45;;
21233;SDS011;10774;42.178;26.578;2024-03-17T05:21:40;43.50;;;32.00;;
21233;SDS011;10774;42.178;26.578;2024-03-17T05:24:06;25.02;;;19.70;;
21233;SDS011;10774;42.178;26.578;2024-03-17T05:26:31;19.17;;;14.38;;
21233;SDS011;10774;42.178;26.578;2024-03-17T05:28:57;17.42;;;12.43;;
21233;SDS011;10774;42.178;26.578;2024-03-17T05:31:22;16.50;;;13.00;;
21233;SDS011;10774;42.178;26.578;2024-03-17T05:33:48;16.65;;;11.93;;
21233;SDS011;10774;42.178;26.578;2024-03-17T05:36:14;19.50;;;11.73;;
21233;SDS011;10774;42.178;26.578;2024-03-17T05:38:39;18.15;;;12.10;;
21233;SDS011;10774;42.178;26.578;2024-03-17T05:41:05;17.98;;;13.65;;
21233;SDS011;10774;42.178;26.578;2024-03-17T05:43:33;26.73;;;16.00;;
21233;SDS011;10774;42.178;26.578;2024-03-17T05:46:09;25.73;;;18.00;;
21233;SDS011;10774;42.178;26.578;2024-03-17T05:48:40;24.73;;;17.55;;
21233;SDS011;10774;42.178;26.578;2024-03-17T05:51:06;23.23;;;16.80;;
21233;SDS011;10774;42.178;26.578;2024-03-17T05:53:33;27.63;;;18.83;;
21233;SDS011;10774;42.178;26.578;2024-03-17T05:55:59;29.50;;;19.17;;
21233;SDS011;10774;42.178;26.578;2024-03-17T05:58:26;30.70;;;19.83;;
21233;SDS011;10774;42.178;26.578;2024-03-17T06:00:52;28.13;;;18.00;;
21233;SDS011;10774;42.178;26.578;2024-03-17T06:03:17;29.85;;;21.13;;
21233;SDS011;10774;42.178;26.578;2024-03-17T06:05:43;36.50;;;25.88;;
21233;SDS011;10774;42.178;26.578;2024-03-17T06:08:12;35.42;;;23.15;;
21233;SDS011;10774;42.178;26.578;2024-03-17T06:10:38;57.40;;;30.92;;
21233;SDS011;10774;42.178;26.578;2024-03-17T06:13:08;30.63;;;21.30;;
21233;SDS011;10774;42.178;26.578;2024-03-17T06:15:37;28.08;;;19.00;;
21233;SDS011;10774;42.178;26.578;2024-03-17T06:18:03;25.48;;;16.52;;
21233;SDS011;10774;42.178;26.578;2024-03-17T06:23:26;29.75;;;19.10;;
21233;SDS011;10774;42.178;26.578;2024-03-17T06:25:52;26.83;;;20.13;;
21233;SDS011;10774;42.178;26.578;2024-03-17T06:28:19;25.17;;;17.48;;
21233;SDS011;10774;42.178;26.578;2024-03-17T06:30:45;22.10;;;16.15;;
21233;SDS011;10774;42.178;26.578;2024-03-17T06:36:01;23.92;;;15.63;;
21233;SDS011;10774;42.178;26.578;2024-03-17T06:41:06;23.25;;;16.25;;
21233;SDS011;10774;42.178;26.578;2024-03-17T06:43:33;23.98;;;16.92;;
21233;SDS011;10774;42.178;26.578;2024-03-17T06:46:00;33.83;;;19.60;;
21233;SDS011;10774;42.178;26.578;2024-03-17T06:48:26;32.65;;;21.25;;
21233;SDS011;10774;42.178;26.578;2024-03-17T06:50:53;29.38;;;19.05;;
21233;SDS011;10774;42.178;26.578;2024-03-17T06:53:22;29.17;;;20.60;;
21233;SDS011;10774;42.178;26.578;2024-03-17T06:55:55;31.58;;;20.13;;
21233;SDS011;10774;42.178;26.578;2024-03-17T06:58:21;30.33;;;20.60;;
21233;SDS011;10774;42.178;26.578;2024-03-17T07:00:54;52.22;;;30.42;;
21233;SDS011;10774;42.178;26.578;2024-03-17T07:03:27;39.03;;;25.35;;
21233;SDS011;10774;42.178;26.578;2024-03-17T07:05:55;38.35;;;22.88;;
21233;SDS011;10774;42.178;26.578;2024-03-17T07:08:22;46.53;;;26.38;;
21233;SDS011;10774;42.178;26.578;2024-03-17T07:10:58;36.55;;;23.85;;
21233;SDS011;10774;42.178;26.578;2024-03-17T07:13:34;29.83;;;20.67;;
21233;SDS011;10774;42.178;26.578;2024-03-17T07:16:04;29.30;;;18.50;;
21233;SDS011;10774;42.178;26.578;2024-03-17T07:18:33;32.38;;;20.85;;
21233;SDS011;10774;42.178;26.578;2024-03-17T07:21:00;36.38;;;24.13;;
21233;SDS011;10774;42.178;26.578;2024-03-17T07:23:29;28.20;;;19.33;;
21233;SDS011;10774;42.178;26.578;2024-03-17T07:25:56;31.98;;;21.30;;
21233;SDS011;10774;42.178;26.578;2024-03-17T07:28:24;34.60;;;20.90;;
21233;SDS011;10774;42.178;26.578;2024-03-17T07:33:20;27.25;;;18.85;;
21233;SDS011;10774;42.178;26.578;2024-03-17T07:35:46;26.58;;;18.85;;
21233;SDS011;10774;42.178;26.578;2024-03-17T07:38:15;28.33;;;18.05;;
21233;SDS011;10774;42.178;26.578;2024-03-17T07:40:42;42.25;;;26.27;;
21233;SDS011;10774;42.178;26.578;2024-03-17T07:43:08;35.05;;;21.60;;
21233;SDS011;10774;42.178;26.578;2024-03-17T07:45:33;46.95;;;26.73;;
21233;SDS011;10774;42.178;26.578;2024-03-17T07:47:59;31.45;;;19.55;;
21233;SDS011;10774;42.178;26.578;2024-03-17T07:50:24;34.40;;;21.08;;
21233;SDS011;10774;42.178;26.578;2024-03-17T07:52:50;33.53;;;23.02;;
21233;SDS011;10774;42.178;26.578;2024-03-17T07:55:15;36.90;;;21.27;;
21233;SDS011;10774;42.178;26.578;2024-03-17T07:57:42;37.58;;;24.08;;
21233;SDS011;10774;42.178;26.578;2024-03-17T08:00:07;34.15;;;22.90;;
21233;SDS011;10774;42.178;26.578;2024-03-17T08:02:49;38.05;;;23.88;;
21233;SDS011;10774;42.178;26.578;2024-03-17T08:05:15;38.92;;;24.38;;
21233;SDS011;10774;42.178;26.578;2024-03-17T08:07:40;32.65;;;21.50;;
21233;SDS011;10774;42.178;26.578;2024-03-17T08:10:07;30.80;;;22.23;;
21233;SDS011;10774;42.178;26.578;2024-03-17T08:12:33;33.55;;;23.17;;
21233;SDS011;10774;42.178;26.578;2024-03-17T08:14:58;47.33;;;29.52;;
21233;SDS011;10774;42.178;26.578;2024-03-17T08:17:24;36.85;;;23.55;;
21233;SDS011;10774;42.178;26.578;2024-03-17T08:19:50;35.78;;;23.63;;
21233;SDS011;10774;42.178;26.578;2024-03-17T08:22:16;34.92;;;23.85;;
21233;SDS011;10774;42.178;26.578;2024-03-17T08:24:42;33.78;;;22.10;;
21233;SDS011;10774;42.178;26.578;2024-03-17T08:27:07;34.45;;;23.10;;
21233;SDS011;10774;42.178;26.578;2024-03-17T08:29:33;37.45;;;23.75;;
21233;SDS011;10774;42.178;26.578;2024-03-17T08:31:59;36.03;;;23.27;;
21233;SDS011;10774;42.178;26.578;2024-03-17T08:34:25;33.78;;;22.92;;
21233;SDS011;10774;42.178;26.578;2024-03-17T08:36:50;30.08;;;19.67;;
21233;SDS011;10774;42.178;26.578;2024-03-17T08:39:16;28.23;;;19.95;;
21233;SDS011;10774;42.178;26.578;2024-03-17T08:41:41;27.95;;;18.45;;
21233;SDS011;10774;42.178;26.578;2024-03-17T08:44:09;27.15;;;17.30;;
21233;SDS011;10774;42.178;26.578;2024-03-17T08:46:34;23.60;;;16.63;;
21233;SDS011;10774;42.178;26.578;2024-03-17T08:49:00;24.98;;;18.88;;
21233;SDS011;10774;42.178;26.578;2024-03-17T08:51:25;26.20;;;17.85;;
21233;SDS011;10774;42.178;26.578;2024-03-17T08:53:52;22.65;;;17.50;;
21233;SDS011;10774;42.178;26.578;2024-03-17T08:56:19;25.88;;;15.60;;
21233;SDS011;10774;42.178;26.578;2024-03-17T08:58:48;21.10;;;14.93;;
21233;SDS011;10774;42.178;26.578;2024-03-17T09:01:15;24.08;;;16.90;;
21233;SDS011;10774;42.178;26.578;2024-03-17T09:03:43;25.90;;;16.42;;
21233;SDS011;10774;42.178;26.578;2024-03-17T09:06:15;20.48;;;15.65;;
21233;SDS011;10774;42.178;26.578;2024-03-17T09:08:41;23.27;;;15.68;;
21233;SDS011;10774;42.178;26.578;2024-03-17T09:11:07;22.25;;;16.20;;
21233;SDS011;10774;42.178;26.578;2024-03-17T09:13:37;21.13;;;16.10;;
21233;SDS011;10774;42.178;26.578;2024-03-17T09:16:03;23.13;;;15.65;;
21233;SDS011;10774;42.178;26.578;2024-03-17T09:18:29;19.35;;;13.70;;
21233;SDS011;10774;42.178;26.578;2024-03-17T09:21:05;16.40;;;13.35;;
21233;SDS011;10774;42.178;26.578;2024-03-17T09:26:56;16.60;;;12.20;;
21233;SDS011;10774;42.178;26.578;2024-03-17T09:29:22;29.73;;;16.95;;
21233;SDS011;10774;42.178;26.578;2024-03-17T09:31:47;20.23;;;14.35;;
21233;SDS011;10774;42.178;26.578;2024-03-17T09:34:14;16.52;;;12.60;;
21233;SDS011;10774;42.178;26.578;2024-03-17T09:36:40;12.20;;;9.93;;
21233;SDS011;10774;42.178;26.578;2024-03-17T09:39:05;11.98;;;9.73;;
21233;SDS011;10774;42.178;26.578;2024-03-17T09:41:31;10.85;;;8.15;;
21233;SDS011;10774;42.178;26.578;2024-03-17T09:43:57;48.42;;;21.67;;
21233;SDS011;10774;42.178;26.578;2024-03-17T09:46:24;81.63;;;35.55;;
21233;SDS011;10774;42.178;26.578;2024-03-17T09:48:51;57.45;;;36.15;;
21233;SDS011;10774;42.178;26.578;2024-03-17T09:51:18;37.47;;;24.15;;
21233;SDS011;10774;42.178;26.578;2024-03-17T09:53:46;11.85;;;9.13;;
21233;SDS011;10774;42.178;26.578;2024-03-17T09:56:13;10.82;;;9.18;;
21233;SDS011;10774;42.178;26.578;2024-03-17T09:58:46;13.52;;;10.90;;
21233;SDS011;10774;42.178;26.578;2024-03-17T10:01:16;13.65;;;10.30;;
21233;SDS011;10774;42.178;26.578;2024-03-17T10:03:51;13.57;;;10.02;;
21233;SDS011;10774;42.178;26.578;2024-03-17T10:06:21;10.90;;;8.60;;
21233;SDS011;10774;42.178;26.578;2024-03-17T10:11:15;9.25;;;7.47;;
21233;SDS011;10774;42.178;26.578;2024-03-17T10:13:43;14.02;;;9.85;;
21233;SDS011;10774;42.178;26.578;2024-03-17T10:16:42;12.02;;;9.55;;
21233;SDS011;10774;42.178;26.578;2024-03-17T10:21:39;33.35;;;15.65;;
21233;SDS011;10774;42.178;26.578;2024-03-17T10:26:41;6.53;;;5.50;;
21233;SDS011;10774;42.178;26.578;2024-03-17T10:31:59;6.47;;;5.75;;
21233;SDS011;10774;42.178;26.578;2024-03-17T10:34:27;11.10;;;9.55;;
21233;SDS011;10774;42.178;26.578;2024-03-17T10:39:41;10.15;;;6.50;;
21233;SDS011;10774;42.178;26.578;2024-03-17T10:42:08;7.72;;;6.18;;
21233;SDS011;10774;42.178;26.578;2024-03-17T10:44:35;10.35;;;7.22;;
21233;SDS011;10774;42.178;26.578;2024-03-17T10:47:02;6.13;;;5.30;;
21233;SDS011;10774;42.178;26.578;2024-03-17T10:49:33;5.18;;;4.68;;
21233;SDS011;10774;42.178;26.578;2024-03-17T10:52:03;6.32;;;5.35;;
21233;SDS011;10774;42.178;26.578;2024-03-17T10:54:30;7.28;;;5.40;;
21233;SDS011;10774;42.178;26.578;2024-03-17T10:56:57;6.63;;;4.93;;
21233;SDS011;10774;42.178;26.578;2024-03-17T10:59:42;11.57;;;10.38;;
21233;SDS011;10774;42.178;26.578;2024-03-17T11:02:22;5.70;;;5.20;;
21233;SDS011;10774;42.178;26.578;2024-03-17T11:04:53;5.88;;;5.25;;
21233;SDS011;10774;42.178;26.578;2024-03-17T11:07:21;9.57;;;6.72;;
21233;SDS011;10774;42.178;26.578;2024-03-17T11:09:48;7.75;;;6.45;;
21233;SDS011;10774;42.178;26.578;2024-03-17T11:17:50;5.38;;;4.88;;
21233;SDS011;10774;42.178;26.578;2024-03-17T11:20:29;7.35;;;5.90;;
21233;SDS011;10774;42.178;26.578;2024-03-17T11:22:58;10.35;;;8.00;;
21233;SDS011;10774;42.178;26.578;2024-03-17T11:28:08;21.45;;;13.43;;
21233;SDS011;10774;42.178;26.578;2024-03-17T11:39:00;5.80;;;5.18;;
21233;SDS011;10774;42.178;26.578;2024-03-17T11:52:03;7.38;;;5.55;;
21233;SDS011;10774;42.178;26.578;2024-03-17T11:54:39;6.55;;;5.50;;
21233;SDS011;10774;42.178;26.578;2024-03-17T11:57:07;14.02;;;10.25;;
21233;SDS011;10774;42.178;26.578;2024-03-17T11:59:36;7.47;;;6.40;;
21233;SDS011;10774;42.178;26.578;2024-03-17T12:02:16;9.30;;;6.93;;
21233;SDS011;10774;42.178;26.578;2024-03-17T12:04:44;7.28;;;5.75;;
21233;SDS011;10774;42.178;26.578;2024-03-17T12:07:14;6.28;;;5.15;;
21233;SDS011;10774;42.178;26.578;2024-03-17T12:09:41;5.72;;;4.30;;
21233;SDS011;10774;42.178;26.578;2024-03-17T12:12:19;6.07;;;4.65;;
21233;SDS011;10774;42.178;26.578;2024-03-17T12:14:46;8.73;;;5.88;;
21233;SDS011;10774;42.178;26.578;2024-03-17T12:17:13;8.30;;;6.22;;
21233;SDS011;10774;42.178;26.578;2024-03-17T12:19:40;8.15;;;6.10;;
21233;SDS011;10774;42.178;26.578;2024-03-17T12:22:09;8.90;;;5.55;;
21233;SDS011;10774;42.178;26.578;2024-03-17T12:24:41;8.23;;;6.95;;
21233;SDS011;10774;42.178;26.578;2024-03-17T12:30:20;5.90;;;5.30;;
21233;SDS011;10774;42.178;26.578;2024-03-17T12:32:46;5.72;;;5.13;;
21233;SDS011;10774;42.178;26.578;2024-03-17T12:35:13;8.25;;;5.70;;
21233;SDS011;10774;42.178;26.578;2024-03-17T12:37:42;7.13;;;5.40;;
21233;SDS011;10774;42.178;26.578;2024-03-17T12:40:17;6.20;;;5.60;;
21233;SDS011;10774;42.178;26.578;2024-03-17T12:42:47;10.45;;;6.90;;
21233;SDS011;10774;42.178;26.578;2024-03-17T12:45:13;6.68;;;6.00;;
21233;SDS011;10774;42.178;26.578;2024-03-17T12:47:38;7.90;;;5.25;;
21233;SDS011;10774;42.178;26.578;2024-03-17T12:50:10;11.95;;;6.55;;
21233;SDS011;10774;42.178;26.578;2024-03-17T12:52:39;5.40;;;4.90;;
21233;SDS011;10774;42.178;26.578;2024-03-17T12:55:08;8.90;;;5.28;;
21233;SDS011;10774;42.178;26.578;2024-03-17T13:00:46;6.85;;;5.85;;
21233;SDS011;10774;42.178;26.578;2024-03-17T13:03:23;12.00;;;7.38;;
21233;SDS011;10774;42.178;26.578;2024-03-17T13:05:50;13.77;;;8.95;;
21233;SDS011;10774;42.178;26.578;2024-03-17T13:08:15;9.95;;;6.97;;
21233;SDS011;10774;42.178;26.578;2024-03-17T13:10:41;12.55;;;7.03;;
21233;SDS011;10774;42.178;26.578;2024-03-17T13:13:15;8.20;;;5.57;;
21233;SDS011;10774;42.178;26.578;2024-03-17T13:15:42;5.97;;;4.78;;
21233;SDS011;10774;42.178;26.578;2024-03-17T13:18:09;7.85;;;7.03;;
21233;SDS011;10774;42.178;26.578;2024-03-17T13:20:40;7.60;;;4.35;;
21233;SDS011;10774;42.178;26.578;2024-03-17T13:23:06;6.75;;;4.53;;
21233;SDS011;10774;42.178;26.578;2024-03-17T13:25:32;7.28;;;4.95;;
21233;SDS011;10774;42.178;26.578;2024-03-17T13:28:01;5.22;;;4.47;;
21233;SDS011;10774;42.178;26.578;2024-03-17T13:30:28;10.55;;;7.75;;
21233;SDS011;10774;42.178;26.578;2024-03-17T13:32:54;6.55;;;5.38;;
21233;SDS011;10774;42.178;26.578;2024-03-17T13:35:24;16.40;;;10.60;;
21233;SDS011;10774;42.178;26.578;2024-03-17T13:37:51;7.82;;;5.60;;
21233;SDS011;10774;42.178;26.578;2024-03-17T13:40:19;5.90;;;4.22;;
21233;SDS011;10774;42.178;26.578;2024-03-17T13:42:45;4.28;;;3.88;;
21233;SDS011;10774;42.178;26.578;2024-03-17T13:45:15;7.85;;;6.38;;
21233;SDS011;10774;42.178;26.578;2024-03-17T13:47:41;5.35;;;4.65;;
21233;SDS011;10774;42.178;26.578;2024-03-17T13:50:11;6.85;;;6.15;;
21233;SDS011;10774;42.178;26.578;2024-03-17T13:52:40;5.38;;;4.88;;
21233;SDS011;10774;42.178;26.578;2024-03-17T13:55:12;7.38;;;5.75;;
21233;SDS011;10774;42.178;26.578;2024-03-17T13:57:43;5.45;;;4.65;;
21233;SDS011;10774;42.178;26.578;2024-03-17T14:00:10;9.15;;;5.78;;
21233;SDS011;10774;42.178;26.578;2024-03-17T14:02:41;8.98;;;6.03;;
21233;SDS011;10774;42.178;26.578;2024-03-17T14:05:20;11.27;;;7.07;;
21233;SDS011;10774;42.178;26.578;2024-03-17T14:10:23;8.48;;;6.10;;
21233;SDS011;10774;42.178;26.578;2024-03-17T14:12:50;11.32;;;9.23;;
21233;SDS011;10774;42.178;26.578;2024-03-17T14:15:15;10.27;;;7.60;;
21233;SDS011;10774;42.178;26.578;2024-03-17T14:17:42;8.55;;;5.78;;
21233;SDS011;10774;42.178;26.578;2024-03-17T14:20:09;5.30;;;4.47;;
21233;SDS011;10774;42.178;26.578;2024-03-17T14:22:38;5.75;;;5.10;;
21233;SDS011;10774;42.178;26.578;2024-03-17T14:25:06;5.22;;;4.70;;
21233;SDS011;10774;42.178;26.578;2024-03-17T14:27:34;7.50;;;5.95;;
21233;SDS011;10774;42.178;26.578;2024-03-17T14:30:00;12.55;;;8.55;;
21233;SDS011;10774;42.178;26.578;2024-03-17T14:32:26;12.63;;;8.45;;
21233;SDS011;10774;42.178;26.578;2024-03-17T14:34:53;15.77;;;11.60;;
21233;SDS011;10774;42.178;26.578;2024-03-17T14:37:18;26.15;;;12.48;;
21233;SDS011;10774;42.178;26.578;2024-03-17T14:39:44;15.85;;;10.73;;
21233;SDS011;10774;42.178;26.578;2024-03-17T14:42:09;13.75;;;8.73;;
21233;SDS011;10774;42.178;26.578;2024-03-17T14:44:35;18.00;;;12.35;;
21233;SDS011;10774;42.178;26.578;2024-03-17T14:47:01;12.85;;;9.02;;
21233;SDS011;10774;42.178;26.578;2024-03-17T14:49:29;11.45;;;9.20;;
21233;SDS011;10774;42.178;26.578;2024-03-17T14:51:55;17.20;;;12.45;;
21233;SDS011;10774;42.178;26.578;2024-03-17T14:54:22;19.67;;;14.90;;
21233;SDS011;10774;42.178;26.578;2024-03-17T14:56:48;26.25;;;17.23;;
21233;SDS011;10774;42.178;26.578;2024-03-17T14:59:13;20.73;;;12.90;;
21233;SDS011;10774;42.178;26.578;2024-03-17T15:01:42;15.77;;;12.27;;
21233;SDS011;10774;42.178;26.578;2024-03-17T15:04:08;14.57;;;11.20;;
21233;SDS011;10774;42.178;26.578;2024-03-17T15:06:33;17.52;;;12.45;;
21233;SDS011;10774;42.178;26.578;2024-03-17T15:08:58;18.10;;;13.85;;
21233;SDS011;10774;42.178;26.578;2024-03-17T15:11:25;24.38;;;17.40;;
21233;SDS011;10774;42.178;26.578;2024-03-17T15:13:50;32.67;;;23.42;;
21233;SDS011;10774;42.178;26.578;2024-03-17T15:16:15;27.80;;;20.63;;
21233;SDS011;10774;42.178;26.578;2024-03-17T15:18:41;30.90;;;24.55;;
21233;SDS011;10774;42.178;26.578;2024-03-17T15:21:07;29.20;;;21.70;;
21233;SDS011;10774;42.178;26.578;2024-03-17T15:23:33;17.98;;;12.48;;